createdAt,value
2018-07-05T00:00:10.529Z,5.83
2018-07-05T00:00:49.509Z,6.78
2018-07-05T00:01:29.211Z,6.42
2018-07-05T00:02:09.156Z,6.03
2018-07-05T00:02:47.788Z,6.20
2018-07-05T00:03:26.355Z,6.47
2018-07-05T00:04:04.995Z,6.47
2018-07-05T00:04:43.619Z,7.25
2018-07-05T00:05:22.421Z,9.13
2018-07-05T00:06:01.194Z,13.25
2018-07-05T00:06:40.265Z,14.25
2018-07-05T00:07:18.867Z,12.73
2018-07-05T00:07:57.573Z,10.88
2018-07-05T00:08:36.432Z,9.70
2018-07-05T00:09:14.989Z,6.95
2018-07-05T00:09:53.584Z,6.30
2018-07-05T00:10:32.218Z,7.20
2018-07-05T00:11:10.960Z,6.05
2018-07-05T00:11:50.333Z,6.12
2018-07-05T00:12:28.915Z,6.37
2018-07-05T00:13:07.695Z,6.83
2018-07-05T00:13:46.226Z,6.62
2018-07-05T00:14:24.790Z,6.30
2018-07-05T00:15:03.528Z,6.10
2018-07-05T00:15:42.119Z,5.58
2018-07-05T00:16:20.711Z,5.90
2018-07-05T00:16:59.407Z,5.97
2018-07-05T00:17:38.071Z,5.70
2018-07-05T00:18:16.691Z,5.55
2018-07-05T00:18:55.259Z,5.42
2018-07-05T00:19:33.823Z,5.97
2018-07-05T00:20:12.521Z,6.30
2018-07-05T00:20:51.239Z,5.47
2018-07-05T00:21:30.222Z,5.50
2018-07-05T00:22:08.746Z,6.30
2018-07-05T00:22:47.259Z,6.28
2018-07-05T00:23:25.871Z,6.65
2018-07-05T00:24:04.434Z,6.60
2018-07-05T00:24:43.075Z,6.90
2018-07-05T00:25:21.750Z,6.30
2018-07-05T00:26:00.622Z,7.03
2018-07-05T00:26:39.161Z,6.75
2018-07-05T00:27:17.772Z,32.13
2018-07-05T00:27:56.513Z,25.65
2018-07-05T00:28:35.774Z,13.98
2018-07-05T00:29:14.736Z,13.08
2018-07-05T00:29:54.234Z,10.95
2018-07-05T00:30:33.070Z,7.00
2018-07-05T00:31:11.774Z,6.80
2018-07-05T00:31:50.305Z,6.17
2018-07-05T00:32:29.774Z,6.03
2018-07-05T00:33:08.657Z,6.05
2018-07-05T00:33:47.664Z,6.03
2018-07-05T00:34:27.432Z,5.35
2018-07-05T00:35:06.297Z,6.00
2018-07-05T00:35:45.191Z,8.30
2018-07-05T00:36:23.971Z,9.98
2018-07-05T00:37:02.524Z,10.60
2018-07-05T00:37:41.261Z,26.35
2018-07-05T00:38:19.798Z,23.75
2018-07-05T00:38:58.553Z,16.40
2018-07-05T00:39:37.184Z,11.68
2018-07-05T00:40:15.725Z,11.55
2018-07-05T00:40:54.226Z,9.55
2018-07-05T00:41:33.414Z,10.20
2018-07-05T00:42:12.110Z,9.05
2018-07-05T00:42:50.674Z,8.25
2018-07-05T00:43:29.240Z,8.05
2018-07-05T00:44:07.903Z,8.15
2018-07-05T00:44:46.478Z,8.40
2018-07-05T00:45:25.290Z,8.20
2018-07-05T00:46:03.923Z,8.20
2018-07-05T00:46:42.593Z,8.73
2018-07-05T00:47:22.634Z,8.05
2018-07-05T00:48:02.613Z,9.03
2018-07-05T00:48:43.133Z,7.55
2018-07-05T00:49:21.838Z,7.50
2018-07-05T00:50:00.390Z,8.00
2018-07-05T00:50:38.892Z,7.72
2018-07-05T00:51:17.510Z,7.47
2018-07-05T00:51:56.019Z,7.60
2018-07-05T00:52:34.679Z,8.20
2018-07-05T00:53:13.237Z,7.62
2018-07-05T00:53:51.782Z,6.45
2018-07-05T00:54:30.472Z,7.08
2018-07-05T00:55:08.976Z,7.30
2018-07-05T00:55:47.630Z,6.80
2018-07-05T00:56:26.189Z,6.87
2018-07-05T00:57:04.862Z,6.80
2018-07-05T00:57:43.468Z,6.40
2018-07-05T00:58:22.147Z,6.62
2018-07-05T00:59:50.911Z,6.30
2018-07-05T01:00:29.482Z,6.20
2018-07-05T01:01:08.214Z,6.72
2018-07-05T01:01:47.010Z,5.75
2018-07-05T01:02:25.802Z,6.00
2018-07-05T01:03:04.317Z,6.50
2018-07-05T01:03:43.196Z,5.72
2018-07-05T01:04:21.894Z,5.97
2018-07-05T01:05:00.564Z,5.65
2018-07-05T01:05:39.227Z,5.83
2018-07-05T01:06:17.746Z,5.55
2018-07-05T01:06:56.427Z,6.20
2018-07-05T01:07:34.959Z,5.80
2018-07-05T01:08:13.686Z,5.62
2018-07-05T01:08:52.258Z,5.72
2018-07-05T01:09:30.865Z,5.25
2018-07-05T01:10:09.425Z,5.00
2018-07-05T01:10:48.150Z,5.78
2018-07-05T01:11:26.829Z,5.72
2018-07-05T01:12:05.450Z,6.17
2018-07-05T01:12:44.092Z,6.40
2018-07-05T01:13:22.937Z,5.65
2018-07-05T01:14:01.677Z,6.78
2018-07-05T01:14:40.247Z,5.60
2018-07-05T01:15:18.818Z,5.75
2018-07-05T01:15:57.782Z,6.17
2018-07-05T01:16:36.724Z,6.12
2018-07-05T01:17:15.287Z,5.92
2018-07-05T01:17:53.834Z,6.65
2018-07-05T01:18:32.531Z,5.62
2018-07-05T01:19:11.200Z,5.55
2018-07-05T01:19:49.862Z,5.72
2018-07-05T01:20:28.522Z,5.78
2018-07-05T01:21:07.356Z,6.00
2018-07-05T01:21:45.895Z,5.87
2018-07-05T01:22:24.689Z,5.92
2018-07-05T01:23:03.378Z,5.87
2018-07-05T01:23:42.194Z,6.03
2018-07-05T01:24:20.746Z,5.80
2018-07-05T01:24:59.658Z,6.28
2018-07-05T01:25:38.304Z,6.20
2018-07-05T01:26:17.050Z,6.53
2018-07-05T01:26:55.648Z,6.15
2018-07-05T01:27:36.902Z,5.42
2018-07-05T01:28:15.670Z,5.10
2018-07-05T01:28:54.655Z,6.05
2018-07-05T01:29:33.279Z,6.30
2018-07-05T01:30:11.847Z,5.22
2018-07-05T01:30:50.353Z,5.50
2018-07-05T01:31:29.164Z,4.90
2018-07-05T01:32:07.859Z,5.50
2018-07-05T01:32:46.474Z,5.65
2018-07-05T01:33:25.232Z,5.40
2018-07-05T01:34:03.900Z,5.58
2018-07-05T01:34:42.707Z,5.85
2018-07-05T01:35:21.303Z,5.03
2018-07-05T01:35:59.939Z,4.70
2018-07-05T01:36:38.808Z,5.60
2018-07-05T01:37:17.613Z,5.05
2018-07-05T01:37:56.219Z,4.72
2018-07-05T01:38:34.976Z,5.72
2018-07-05T01:39:13.705Z,5.40
2018-07-05T01:39:52.431Z,6.60
2018-07-05T01:40:31.368Z,6.00
2018-07-05T01:41:10.216Z,6.58
2018-07-05T01:41:49.096Z,5.22
2018-07-05T01:42:27.960Z,6.30
2018-07-05T01:43:06.852Z,6.75
2018-07-05T01:43:46.759Z,6.22
2018-07-05T01:44:25.594Z,6.72
2018-07-05T01:45:04.277Z,5.78
2018-07-05T01:45:43.016Z,6.50
2018-07-05T01:46:21.906Z,6.80
2018-07-05T01:47:00.529Z,6.55
2018-07-05T01:47:39.380Z,5.05
2018-07-05T01:48:18.144Z,6.62
2018-07-05T01:48:56.734Z,5.50
2018-07-05T01:49:35.780Z,6.80
2018-07-05T01:50:14.658Z,6.60
2018-07-05T01:50:53.627Z,6.10
2018-07-05T01:51:32.331Z,6.45
2018-07-05T01:52:12.422Z,6.20
2018-07-05T01:52:51.942Z,6.60
2018-07-05T01:53:30.555Z,6.85
2018-07-05T01:54:09.154Z,6.00
2018-07-05T01:54:47.790Z,6.10
2018-07-05T01:55:26.333Z,5.70
2018-07-05T01:56:04.997Z,5.08
2018-07-05T01:56:43.601Z,6.15
2018-07-05T01:57:22.286Z,5.37
2018-07-05T01:58:00.775Z,5.25
2018-07-05T01:58:39.628Z,5.65
2018-07-05T01:59:18.357Z,6.00
2018-07-05T01:59:57.050Z,5.80
2018-07-05T02:00:35.945Z,5.30
2018-07-05T02:01:14.626Z,5.55
2018-07-05T02:01:53.368Z,5.83
2018-07-05T02:02:32.151Z,5.85
2018-07-05T02:03:10.656Z,5.92
2018-07-05T02:03:49.284Z,5.92
2018-07-05T02:04:27.955Z,5.65
2018-07-05T02:05:06.740Z,5.37
2018-07-05T02:05:45.342Z,5.30
2018-07-05T02:06:23.868Z,5.45
2018-07-05T02:07:02.575Z,5.72
2018-07-05T02:07:47.816Z,5.37
2018-07-05T02:08:26.377Z,5.00
2018-07-05T02:09:05.073Z,5.70
2018-07-05T02:09:43.702Z,5.97
2018-07-05T02:10:22.407Z,5.20
2018-07-05T02:11:01.111Z,5.72
2018-07-05T02:11:39.828Z,5.55
2018-07-05T02:12:18.305Z,5.20
2018-07-05T02:12:56.879Z,5.60
2018-07-05T02:13:35.530Z,5.35
2018-07-05T02:14:14.098Z,5.80
2018-07-05T02:14:52.758Z,6.70
2018-07-05T02:15:31.511Z,6.53
2018-07-05T02:16:10.312Z,5.75
2018-07-05T02:16:48.783Z,5.95
2018-07-05T02:17:27.695Z,6.78
2018-07-05T02:18:06.303Z,6.00
2018-07-05T02:18:44.883Z,6.00
2018-07-05T02:19:23.488Z,5.53
2018-07-05T02:20:02.116Z,5.37
2018-07-05T02:20:40.807Z,5.10
2018-07-05T02:21:19.528Z,5.12
2018-07-05T02:21:58.202Z,4.75
2018-07-05T02:22:36.934Z,5.20
2018-07-05T02:23:15.760Z,6.30
2018-07-05T02:23:54.412Z,5.30
2018-07-05T02:24:33.100Z,5.92
2018-07-05T02:25:11.707Z,4.90
2018-07-05T02:25:50.237Z,4.95
2018-07-05T02:26:28.867Z,5.05
2018-07-05T02:27:07.454Z,5.20
2018-07-05T02:27:46.298Z,5.70
2018-07-05T02:28:25.120Z,5.22
2018-07-05T02:29:03.996Z,4.50
2018-07-05T02:29:42.727Z,5.55
2018-07-05T02:30:21.428Z,5.15
2018-07-05T02:31:00.086Z,4.95
2018-07-05T02:31:38.724Z,4.83
2018-07-05T02:32:17.239Z,6.37
2018-07-05T02:32:55.893Z,5.70
2018-07-05T02:33:34.547Z,5.65
2018-07-05T02:34:13.102Z,4.78
2018-07-05T02:34:51.623Z,5.78
2018-07-05T02:35:30.301Z,4.60
2018-07-05T02:36:08.976Z,5.20
2018-07-05T02:36:47.479Z,5.30
2018-07-05T02:37:31.411Z,5.12
2018-07-05T02:38:15.882Z,5.50
2018-07-05T02:40:01.315Z,4.95
2018-07-05T02:40:40.180Z,4.90
2018-07-05T02:41:18.929Z,5.20
2018-07-05T02:41:57.873Z,6.00
2018-07-05T02:42:36.574Z,5.35
2018-07-05T02:43:15.302Z,5.33
2018-07-05T02:43:53.948Z,4.80
2018-07-05T02:44:32.495Z,4.85
2018-07-05T02:45:11.229Z,5.37
2018-07-05T02:45:49.811Z,4.78
2018-07-05T02:46:28.495Z,5.00
2018-07-05T02:47:07.126Z,5.17
2018-07-05T02:47:45.654Z,5.55
2018-07-05T02:48:24.220Z,4.85
2018-07-05T02:49:02.719Z,5.00
2018-07-05T02:49:41.448Z,4.85
2018-07-05T02:50:20.191Z,4.97
2018-07-05T02:50:59.192Z,4.60
2018-07-05T02:51:37.953Z,5.10
2018-07-05T02:52:16.506Z,5.42
2018-07-05T02:52:55.321Z,4.47
2018-07-05T02:53:34.021Z,4.78
2018-07-05T02:54:12.841Z,4.58
2018-07-05T02:54:51.575Z,5.37
2018-07-05T02:55:30.271Z,4.85
2018-07-05T02:56:08.899Z,4.83
2018-07-05T02:56:47.598Z,5.35
2018-07-05T02:57:26.177Z,4.97
2018-07-05T02:58:04.935Z,4.80
2018-07-05T02:58:43.681Z,4.83
2018-07-05T02:59:22.365Z,4.78
2018-07-05T03:00:00.992Z,4.62
2018-07-05T03:00:43.812Z,5.17
2018-07-05T03:01:22.385Z,5.37
2018-07-05T03:02:00.920Z,4.80
2018-07-05T03:02:39.626Z,5.15
2018-07-05T03:03:18.437Z,4.40
2018-07-05T03:03:57.179Z,4.90
2018-07-05T03:04:35.810Z,5.35
2018-07-05T03:05:14.371Z,5.50
2018-07-05T03:05:53.005Z,5.50
2018-07-05T03:06:31.629Z,4.50
2018-07-05T03:07:10.665Z,4.90
2018-07-05T03:07:49.347Z,5.05
2018-07-05T03:08:27.928Z,5.15
2018-07-05T03:09:06.537Z,4.80
2018-07-05T03:09:45.396Z,5.35
2018-07-05T03:10:24.163Z,5.85
2018-07-05T03:11:03.417Z,5.15
2018-07-05T03:11:42.257Z,4.90
2018-07-05T03:12:20.882Z,4.30
2018-07-05T03:12:59.578Z,5.00
2018-07-05T03:13:38.290Z,6.62
2018-07-05T03:14:16.989Z,6.20
2018-07-05T03:14:55.598Z,6.70
2018-07-05T03:15:34.513Z,6.25
2018-07-05T03:16:12.992Z,6.10
2018-07-05T03:16:51.540Z,5.80
2018-07-05T03:17:30.221Z,5.30
2018-07-05T03:18:08.919Z,5.33
2018-07-05T03:18:47.507Z,5.12
2018-07-05T03:19:26.328Z,5.20
2018-07-05T03:20:05.057Z,5.08
2018-07-05T03:20:44.077Z,4.65
2018-07-05T03:21:22.754Z,4.80
2018-07-05T03:22:02.382Z,5.28
2018-07-05T03:22:40.929Z,4.53
2018-07-05T03:23:19.492Z,4.90
2018-07-05T03:23:58.058Z,5.33
2018-07-05T03:24:36.598Z,5.22
2018-07-05T03:25:15.439Z,4.62
2018-07-05T03:25:54.147Z,5.10
2018-07-05T03:26:32.779Z,5.50
2018-07-05T03:27:11.403Z,5.10
2018-07-05T03:27:50.016Z,5.17
2018-07-05T03:28:28.588Z,5.30
2018-07-05T03:29:07.246Z,4.85
2018-07-05T03:29:45.759Z,5.30
2018-07-05T03:30:24.243Z,5.78
2018-07-05T03:31:02.803Z,6.30
2018-07-05T03:31:41.468Z,5.60
2018-07-05T03:32:20.188Z,5.62
2018-07-05T03:32:58.675Z,5.25
2018-07-05T03:33:37.247Z,6.05
2018-07-05T03:34:16.003Z,5.10
2018-07-05T03:34:54.554Z,5.00
2018-07-05T03:35:33.408Z,5.37
2018-07-05T03:36:12.128Z,5.00
2018-07-05T03:36:50.696Z,5.70
2018-07-05T03:37:29.283Z,5.30
2018-07-05T03:38:07.945Z,5.42
2018-07-05T03:38:46.700Z,5.37
2018-07-05T03:39:25.262Z,5.62
2018-07-05T03:40:04.072Z,6.45
2018-07-05T03:40:42.787Z,5.75
2018-07-05T03:41:21.380Z,5.78
2018-07-05T03:42:00.175Z,5.80
2018-07-05T03:42:38.842Z,5.80
2018-07-05T03:43:17.386Z,6.10
2018-07-05T03:43:55.866Z,5.80
2018-07-05T03:44:34.401Z,5.33
2018-07-05T03:45:13.114Z,6.15
2018-07-05T03:45:52.164Z,6.30
2018-07-05T03:46:30.852Z,6.15
2018-07-05T03:47:09.548Z,5.90
2018-07-05T03:47:48.251Z,6.00
2018-07-05T03:48:26.867Z,5.75
2018-07-05T03:49:05.675Z,4.20
2018-07-05T03:49:44.399Z,5.45
2018-07-05T03:50:23.000Z,5.00
2018-07-05T03:51:01.527Z,5.50
2018-07-05T03:51:40.095Z,4.83
2018-07-05T03:52:18.685Z,5.45
2018-07-05T03:52:57.307Z,5.10
2018-07-05T03:53:36.141Z,5.35
2018-07-05T03:54:14.714Z,5.62
2018-07-05T03:54:53.427Z,5.42
2018-07-05T03:55:32.266Z,5.50
2018-07-05T03:56:10.873Z,5.10
2018-07-05T03:56:49.543Z,5.28
2018-07-05T03:57:28.096Z,5.25
2018-07-05T03:58:06.580Z,4.78
2018-07-05T03:58:45.358Z,5.42
2018-07-05T03:59:24.072Z,5.05
2018-07-05T04:00:02.564Z,5.03
2018-07-05T04:00:41.186Z,5.87
2018-07-05T04:01:19.965Z,5.30
2018-07-05T04:01:58.627Z,5.40
2018-07-05T04:02:37.359Z,6.42
2018-07-05T04:03:16.042Z,6.17
2018-07-05T04:03:54.587Z,6.00
2018-07-05T04:04:33.231Z,5.60
2018-07-05T04:05:11.920Z,5.55
2018-07-05T04:05:50.786Z,5.67
2018-07-05T04:06:29.539Z,5.45
2018-07-05T04:07:08.329Z,5.37
2018-07-05T04:07:46.811Z,5.65
2018-07-05T04:08:25.443Z,5.97
2018-07-05T04:09:04.399Z,6.15
2018-07-05T04:09:43.395Z,6.40
2018-07-05T04:10:22.100Z,6.15
2018-07-05T04:11:00.837Z,6.90
2018-07-05T04:11:39.408Z,5.60
2018-07-05T04:12:18.370Z,6.15
2018-07-05T04:12:56.932Z,6.03
2018-07-05T04:13:35.689Z,5.80
2018-07-05T04:14:14.351Z,6.05
2018-07-05T04:14:53.114Z,5.83
2018-07-05T04:15:31.784Z,6.15
2018-07-05T04:16:10.425Z,6.15
2018-07-05T04:16:49.185Z,6.15
2018-07-05T04:17:28.232Z,6.50
2018-07-05T04:18:06.925Z,5.55
2018-07-05T04:18:45.619Z,5.72
2018-07-05T04:19:24.251Z,6.60
2018-07-05T04:20:03.088Z,5.78
2018-07-05T04:20:41.599Z,5.60
2018-07-05T04:21:20.490Z,5.65
2018-07-05T04:21:59.043Z,5.17
2018-07-05T04:22:37.620Z,5.67
2018-07-05T04:23:16.208Z,6.17
2018-07-05T04:23:54.680Z,5.22
2018-07-05T04:24:33.413Z,5.85
2018-07-05T04:25:12.435Z,5.30
2018-07-05T04:25:51.450Z,5.60
2018-07-05T04:26:30.192Z,6.10
2018-07-05T04:27:08.724Z,5.60
2018-07-05T04:27:47.545Z,6.03
2018-07-05T04:28:26.118Z,6.10
2018-07-05T04:29:04.787Z,6.35
2018-07-05T04:29:43.374Z,6.30
2018-07-05T04:30:21.961Z,5.60
2018-07-05T04:31:00.607Z,5.85
2018-07-05T04:31:39.346Z,6.20
2018-07-05T04:32:17.916Z,5.53
2018-07-05T04:32:56.608Z,6.00
2018-07-05T04:33:35.330Z,6.30
2018-07-05T04:34:13.977Z,5.35
2018-07-05T04:34:52.477Z,6.30
2018-07-05T04:35:31.259Z,6.12
2018-07-05T04:36:09.948Z,5.45
2018-07-05T04:36:48.494Z,5.37
2018-07-05T04:37:27.136Z,5.53
2018-07-05T04:38:05.643Z,5.25
2018-07-05T04:38:44.215Z,5.50
2018-07-05T04:39:22.786Z,6.75
2018-07-05T04:40:01.504Z,7.20
2018-07-05T04:40:40.178Z,7.25
2018-07-05T04:41:19.019Z,6.28
2018-07-05T04:41:57.533Z,5.97
2018-07-05T04:42:36.112Z,6.67
2018-07-05T04:43:14.884Z,6.70
2018-07-05T04:43:53.472Z,6.05
2018-07-05T04:44:32.140Z,6.67
2018-07-05T04:45:10.819Z,7.55
2018-07-05T04:45:49.527Z,8.80
2018-07-05T04:46:28.245Z,8.40
2018-07-05T04:47:06.971Z,7.72
2018-07-05T04:47:45.630Z,6.65
2018-07-05T04:48:24.259Z,6.50
2018-07-05T04:49:02.901Z,5.90
2018-07-05T04:49:41.571Z,6.90
2018-07-05T04:50:20.199Z,6.05
2018-07-05T04:50:58.801Z,7.62
2018-07-05T04:51:37.612Z,6.95
2018-07-05T04:52:16.120Z,7.30
2018-07-05T04:52:54.703Z,7.33
2018-07-05T04:53:33.551Z,6.50
2018-07-05T04:54:12.447Z,6.83
2018-07-05T04:54:51.092Z,6.50
2018-07-05T04:55:29.790Z,5.53
2018-07-05T04:56:08.571Z,6.03
2018-07-05T04:56:47.280Z,5.83
2018-07-05T04:57:26.105Z,5.70
2018-07-05T04:58:04.827Z,7.35
2018-07-05T04:58:43.515Z,7.03
2018-07-05T04:59:22.534Z,6.37
2018-07-05T05:00:01.437Z,8.05
2018-07-05T05:00:40.152Z,9.95
2018-07-05T05:01:18.651Z,9.98
2018-07-05T05:01:57.174Z,7.67
2018-07-05T05:02:35.719Z,7.97
2018-07-05T05:03:14.322Z,8.50
2018-07-05T05:03:52.796Z,7.28
2018-07-05T05:04:31.589Z,6.25
2018-07-05T05:05:10.507Z,6.72
2018-07-05T05:05:49.303Z,6.12
2018-07-05T05:06:27.869Z,6.80
2018-07-05T05:07:06.806Z,6.40
2018-07-05T05:07:44.746Z,6.58
2018-07-05T05:08:23.538Z,6.67
2018-07-05T05:09:02.198Z,6.72
2018-07-05T05:09:40.768Z,6.58
2018-07-05T05:10:19.602Z,7.33
2018-07-05T05:10:58.435Z,6.78
2018-07-05T05:11:36.953Z,6.00
2018-07-05T05:12:15.781Z,7.53
2018-07-05T05:12:54.377Z,6.80
2018-07-05T05:13:33.176Z,7.30
2018-07-05T05:14:11.905Z,6.45
2018-07-05T05:14:50.564Z,6.37
2018-07-05T05:15:29.141Z,6.50
2018-07-05T05:16:07.842Z,6.75
2018-07-05T05:16:46.575Z,7.12
2018-07-05T05:17:25.337Z,7.40
2018-07-05T05:18:03.853Z,6.22
2018-07-05T05:18:42.535Z,7.08
2018-07-05T05:19:21.135Z,7.47
2018-07-05T05:19:59.823Z,6.83
2018-07-05T05:20:38.369Z,6.62
2018-07-05T05:21:17.323Z,6.83
2018-07-05T05:21:56.033Z,6.42
2018-07-05T05:22:34.676Z,7.30
2018-07-05T05:23:13.932Z,6.90
2018-07-05T05:23:52.459Z,6.10
2018-07-05T05:24:30.983Z,6.33
2018-07-05T05:25:09.509Z,6.78
2018-07-05T05:25:48.270Z,7.05
2018-07-05T05:26:26.871Z,7.10
2018-07-05T05:27:05.387Z,7.50
2018-07-05T05:27:44.034Z,7.47
2018-07-05T05:28:22.729Z,6.87
2018-07-05T05:29:02.387Z,7.30
2018-07-05T05:29:41.071Z,6.78
2018-07-05T05:30:19.800Z,6.95
2018-07-05T05:30:58.550Z,7.10
2018-07-05T05:31:37.109Z,7.03
2018-07-05T05:32:15.907Z,7.20
2018-07-05T05:32:54.379Z,6.30
2018-07-05T05:33:32.971Z,7.53
2018-07-05T05:34:11.626Z,7.92
2018-07-05T05:34:50.395Z,8.03
2018-07-05T05:35:29.157Z,8.33
2018-07-05T05:36:07.869Z,7.10
2018-07-05T05:36:46.576Z,6.90
2018-07-05T05:37:25.346Z,8.85
2018-07-05T05:38:04.001Z,9.10
2018-07-05T05:38:42.714Z,7.55
2018-07-05T05:39:21.402Z,7.53
2018-07-05T05:40:00.147Z,6.85
2018-07-05T05:40:38.685Z,7.45
2018-07-05T05:41:17.503Z,6.70
2018-07-05T05:41:56.050Z,7.50
2018-07-05T05:42:34.706Z,7.03
2018-07-05T05:43:13.216Z,7.37
2018-07-05T05:43:51.813Z,10.08
2018-07-05T05:44:30.773Z,9.08
2018-07-05T05:45:09.590Z,7.62
2018-07-05T05:45:48.498Z,8.10
2018-07-05T05:46:27.136Z,7.12
2018-07-05T05:47:05.899Z,6.50
2018-07-05T05:47:44.649Z,7.10
2018-07-05T05:48:23.291Z,7.03
2018-07-05T05:49:02.032Z,6.53
2018-07-05T05:49:40.692Z,6.22
2018-07-05T05:50:19.609Z,7.10
2018-07-05T05:50:58.205Z,6.90
2018-07-05T05:51:36.945Z,6.47
2018-07-05T05:52:15.483Z,7.37
2018-07-05T05:52:54.403Z,6.12
2018-07-05T05:53:33.018Z,7.15
2018-07-05T05:54:11.618Z,6.10
2018-07-05T05:54:50.402Z,7.55
2018-07-05T05:55:29.121Z,6.60
2018-07-05T05:56:07.775Z,6.75
2018-07-05T05:56:46.856Z,6.50
2018-07-05T05:57:25.510Z,6.95
2018-07-05T05:58:04.275Z,7.35
2018-07-05T05:58:42.964Z,7.65
2018-07-05T05:59:21.788Z,7.70
2018-07-05T06:00:00.495Z,7.60
2018-07-05T06:00:39.205Z,7.40
2018-07-05T06:01:17.910Z,8.53
2018-07-05T06:01:56.599Z,8.10
2018-07-05T06:02:35.149Z,7.65
2018-07-05T06:03:14.044Z,6.17
2018-07-05T06:03:52.627Z,8.48
2018-07-05T06:04:31.362Z,7.03
2018-07-05T06:05:10.058Z,6.97
2018-07-05T06:05:48.557Z,7.53
2018-07-05T06:06:27.159Z,6.55
2018-07-05T06:07:06.275Z,6.95
2018-07-05T06:07:44.981Z,7.00
2018-07-05T06:08:24.196Z,7.30
2018-07-05T06:09:02.929Z,7.50
2018-07-05T06:09:41.484Z,6.95
2018-07-05T06:10:20.066Z,6.65
2018-07-05T06:10:58.588Z,6.60
2018-07-05T06:11:37.115Z,7.20
2018-07-05T06:12:16.158Z,7.28
2018-07-05T06:12:54.862Z,7.53
2018-07-05T06:13:33.340Z,7.20
2018-07-05T06:14:12.249Z,6.87
2018-07-05T06:14:50.782Z,7.25
2018-07-05T06:15:29.425Z,6.87
2018-07-05T06:16:08.033Z,7.70
2018-07-05T06:16:46.806Z,6.05
2018-07-05T06:17:25.552Z,6.83
2018-07-05T06:18:04.334Z,6.35
2018-07-05T06:18:43.007Z,6.50
2018-07-05T06:19:21.651Z,6.12
2018-07-05T06:20:00.298Z,7.53
2018-07-05T06:20:39.089Z,6.22
2018-07-05T06:21:17.536Z,6.80
2018-07-05T06:21:56.285Z,7.03
2018-07-05T06:22:34.862Z,7.20
2018-07-05T06:23:13.560Z,7.60
2018-07-05T06:23:52.395Z,8.30
2018-07-05T06:24:30.922Z,7.53
2018-07-05T06:25:09.432Z,7.45
2018-07-05T06:25:48.300Z,6.90
2018-07-05T06:26:26.878Z,7.28
2018-07-05T06:27:05.668Z,7.00
2018-07-05T06:27:44.247Z,7.05
2018-07-05T06:28:23.044Z,7.30
2018-07-05T06:29:01.953Z,6.67
2018-07-05T06:29:40.588Z,6.75
2018-07-05T06:30:19.164Z,7.65
2018-07-05T06:30:58.080Z,7.05
2018-07-05T06:31:36.763Z,7.97
2018-07-05T06:32:15.375Z,6.60
2018-07-05T06:32:53.974Z,7.85
2018-07-05T06:33:32.724Z,7.00
2018-07-05T06:34:11.335Z,7.12
2018-07-05T06:34:49.997Z,6.95
2018-07-05T06:35:29.347Z,7.65
2018-07-05T06:36:07.843Z,6.95
2018-07-05T06:36:46.555Z,7.42
2018-07-05T06:37:25.350Z,6.67
2018-07-05T06:38:04.016Z,6.75
2018-07-05T06:38:42.678Z,6.55
2018-07-05T06:39:21.389Z,6.10
2018-07-05T06:40:00.117Z,6.47
2018-07-05T06:40:38.673Z,6.30
2018-07-05T06:41:17.374Z,6.72
2018-07-05T06:41:55.980Z,6.30
2018-07-05T06:42:34.708Z,7.35
2018-07-05T06:43:13.347Z,6.85
2018-07-05T06:43:51.999Z,6.60
2018-07-05T06:44:31.069Z,7.00
2018-07-05T06:45:09.944Z,6.62
2018-07-05T06:45:48.530Z,7.50
2018-07-05T06:46:27.258Z,7.37
2018-07-05T06:47:06.105Z,6.22
2018-07-05T06:47:44.919Z,7.40
2018-07-05T06:48:23.611Z,6.33
2018-07-05T06:49:02.502Z,6.70
2018-07-05T06:49:41.149Z,5.87
2018-07-05T06:50:20.053Z,6.65
2018-07-05T06:50:58.508Z,6.90
2018-07-05T06:51:37.102Z,7.12
2018-07-05T06:52:15.898Z,7.25
2018-07-05T06:52:54.695Z,7.03
2018-07-05T06:53:33.503Z,7.70
2018-07-05T06:54:12.288Z,7.03
2018-07-05T06:54:51.212Z,6.42
2018-07-05T06:55:29.853Z,6.00
2018-07-05T06:56:08.672Z,6.62
2018-07-05T06:56:47.441Z,6.90
2018-07-05T06:57:26.034Z,5.90
2018-07-05T06:58:05.733Z,7.00
2018-07-05T06:58:44.403Z,7.55
2018-07-05T06:59:23.433Z,8.15
2018-07-05T07:00:02.247Z,6.62
2018-07-05T07:00:41.126Z,6.85
2018-07-05T07:01:19.958Z,6.17
2018-07-05T07:01:58.595Z,6.20
2018-07-05T07:02:37.525Z,5.70
2018-07-05T07:03:16.093Z,6.25
2018-07-05T07:03:54.660Z,6.00
2018-07-05T07:04:34.783Z,5.72
2018-07-05T07:05:14.232Z,6.25
2018-07-05T07:05:53.370Z,6.10
2018-07-05T07:06:35.762Z,5.97
2018-07-05T07:07:14.462Z,6.72
2018-07-05T07:07:53.248Z,5.30
2018-07-05T07:08:31.881Z,6.40
2018-07-05T07:09:10.646Z,5.60
2018-07-05T07:09:49.362Z,5.62
2018-07-05T07:10:28.070Z,5.85
2018-07-05T07:11:06.692Z,5.70
2018-07-05T07:11:45.577Z,5.72
2018-07-05T07:12:24.271Z,5.85
2018-07-05T07:13:02.995Z,6.80
2018-07-05T07:13:41.691Z,5.75
2018-07-05T07:14:20.389Z,5.80
2018-07-05T07:14:58.981Z,5.72
2018-07-05T07:15:37.674Z,5.60
2018-07-05T07:16:16.434Z,6.20
2018-07-05T07:16:55.180Z,6.00
2018-07-05T07:17:34.292Z,5.80
2018-07-05T07:18:13.089Z,6.12
2018-07-05T07:18:51.576Z,5.55
2018-07-05T07:19:31.342Z,5.85
2018-07-05T07:20:10.221Z,6.40
2018-07-05T07:20:49.031Z,5.53
2018-07-05T07:21:28.021Z,6.20
2018-07-05T07:22:07.031Z,6.22
2018-07-05T07:22:45.733Z,6.65
2018-07-05T07:23:24.504Z,7.10
2018-07-05T07:24:03.398Z,5.83
2018-07-05T07:24:43.014Z,5.95
2018-07-05T07:25:21.766Z,5.70
2018-07-05T07:26:00.381Z,5.95
2018-07-05T07:26:39.190Z,6.90
2018-07-05T07:27:17.963Z,6.40
2018-07-05T07:27:56.752Z,6.55
2018-07-05T07:28:35.644Z,6.87
2018-07-05T07:29:15.234Z,6.55
2018-07-05T07:29:54.054Z,6.40
2018-07-05T07:30:33.061Z,6.12
2018-07-05T07:31:12.375Z,7.40
2018-07-05T07:31:51.837Z,5.95
2018-07-05T07:32:30.613Z,5.80
2018-07-05T07:33:09.367Z,6.53
2018-07-05T07:33:48.406Z,6.10
2018-07-05T07:34:28.136Z,5.67
2018-07-05T07:35:07.121Z,6.15
2018-07-05T07:35:46.026Z,6.28
2018-07-05T07:36:24.733Z,6.03
2018-07-05T07:37:03.587Z,6.55
2018-07-05T07:37:42.298Z,5.12
2018-07-05T07:38:20.821Z,5.75
2018-07-05T07:38:59.951Z,5.42
2018-07-05T07:39:40.237Z,5.50
2018-07-05T07:40:18.876Z,5.70
2018-07-05T07:40:57.820Z,5.60
2018-07-05T07:41:36.407Z,5.53
2018-07-05T07:42:09.283Z,4.87
2018-07-05T07:42:41.880Z,5.60
2018-07-05T07:43:14.518Z,5.72
2018-07-05T07:43:47.140Z,5.72
2018-07-05T07:44:20.666Z,5.47
2018-07-05T07:44:53.397Z,5.95
2018-07-05T07:45:26.167Z,5.20
2018-07-05T07:45:59.049Z,6.08
2018-07-05T07:46:31.672Z,5.72
2018-07-05T07:47:04.394Z,5.80
2018-07-05T07:47:37.786Z,5.80
2018-07-05T07:48:10.366Z,5.80
2018-07-05T07:48:42.957Z,6.28
2018-07-05T07:49:16.127Z,5.70
2018-07-05T07:49:49.010Z,5.60
2018-07-05T07:50:21.869Z,5.92
2018-07-05T07:50:55.031Z,6.30
2018-07-05T07:51:27.635Z,6.20
2018-07-05T07:52:00.497Z,5.65
2018-07-05T07:52:33.102Z,5.78
2018-07-05T07:53:05.739Z,6.05
2018-07-05T07:53:38.716Z,5.90
2018-07-05T07:54:11.295Z,5.70
2018-07-05T07:54:44.989Z,5.05
2018-07-05T07:55:17.799Z,5.53
2018-07-05T07:55:50.501Z,5.50
2018-07-05T07:56:23.237Z,5.83
2018-07-05T07:56:56.023Z,5.22
2018-07-05T07:57:28.660Z,5.30
2018-07-05T07:58:01.436Z,5.90
2018-07-05T07:58:34.049Z,5.80
2018-07-05T07:59:06.875Z,6.97
2018-07-05T07:59:40.076Z,6.33
2018-07-05T08:00:13.079Z,6.35
2018-07-05T08:00:45.730Z,6.15
2018-07-05T08:01:18.425Z,6.20
2018-07-05T08:01:51.298Z,5.62
2018-07-05T08:02:23.880Z,5.33
2018-07-05T08:02:56.576Z,5.40
2018-07-05T08:03:29.529Z,5.22
2018-07-05T08:04:02.405Z,6.10
2018-07-05T08:04:35.947Z,4.97
2018-07-05T08:05:08.791Z,5.08
2018-07-05T08:05:41.410Z,5.75
2018-07-05T08:06:14.641Z,5.80
2018-07-05T08:06:47.351Z,4.72
2018-07-05T08:07:20.668Z,5.45
2018-07-05T08:07:53.500Z,5.92
2018-07-05T08:08:27.124Z,5.55
2018-07-05T08:09:00.103Z,5.90
2018-07-05T08:09:33.371Z,6.00
2018-07-05T08:10:06.252Z,5.72
2018-07-05T08:10:39.063Z,5.80
2018-07-05T08:11:11.912Z,5.72
2018-07-05T08:11:44.467Z,6.60
2018-07-05T08:12:18.050Z,5.20
2018-07-05T08:12:52.043Z,5.80
2018-07-05T08:13:24.617Z,5.60
2018-07-05T08:13:58.043Z,5.60
2018-07-05T08:14:30.743Z,5.45
2018-07-05T08:15:04.035Z,5.55
2018-07-05T08:15:37.103Z,5.62
2018-07-05T08:16:09.715Z,5.80
2018-07-05T08:16:42.413Z,4.83
2018-07-05T08:17:15.109Z,5.05
2018-07-05T08:17:47.830Z,5.70
2018-07-05T08:18:20.575Z,5.45
2018-07-05T08:18:53.507Z,4.85
2018-07-05T08:19:26.132Z,5.65
2018-07-05T08:19:58.999Z,5.50
2018-07-05T08:20:32.803Z,5.67
2018-07-05T08:21:05.407Z,4.87
2018-07-05T08:21:37.992Z,5.08
2018-07-05T08:22:10.819Z,4.65
2018-07-05T08:22:43.459Z,5.37
2018-07-05T08:23:16.084Z,5.15
2018-07-05T08:23:48.666Z,5.97
2018-07-05T08:24:21.427Z,5.28
2018-07-05T08:24:54.019Z,4.58
2018-07-05T08:25:26.608Z,5.15
2018-07-05T08:25:59.460Z,4.50
2018-07-05T08:26:32.263Z,5.50
2018-07-05T08:27:04.864Z,5.00
2018-07-05T08:27:37.506Z,4.95
2018-07-05T08:28:10.173Z,5.45
2018-07-05T08:28:42.982Z,4.95